Cheney, WA (99004)

9:00 PM PDT on September 23, 2014 (GMT -0700)
RAWS CHENEY WA US | Change Station
CLOSE
Current Station
Personal Weather Station
Location: Cheney, WA
Elevation: 2229 ft
Nearby Weather Stations

Elev 2229 ft 47.42 °N, 117.53 °W | Updated 32 minutes ago

Overcast
Overcast
68 °F
Feels Like 68 °F
N
1
Wind Variable Wind from NNW
Gusts 9.0 mph

Today
High -- | Low -- °F
--% Chance of Precip.
Yesterday
High -- | Low -- °F
Precip. -- in
6:38 AM 6:46 PM
Waning Crescent, 0% visible
Pressure 29.90 in
Visibility 10.0 miles
Clouds Scattered Clouds 7500 ft
Mostly Cloudy 9500 ft
Dew Point 53 °F
Humidity 58%
Rainfall 0.00 in
Snow Depth 0 in , 0 in , 0 in
UV 0 out of 12
Pollen 6.10 out of 12
PM2.5 Moderate
Flu Activity Not available.
METAR KSKA 240358Z AUTO 31009KT 10SM SCT075 BKN095 18/13 A2992 RMK AO2 RAB0319E0343 SLP125 P0000 T01780129

More Conditions Fewer Conditions

Pressure 29.90 in
Visibility 10.0 miles
Clouds Scattered Clouds 7500 ft
Mostly Cloudy 9500 ft
Dew Point 53 °F
Humidity 58%
Rainfall 0.00 in
Snow Depth 0 in , 0 in , 0 in
UV 0 out of 12
Pollen 6.10 out of 12
PM2.5 Moderate
Flu Activity Not available.
METAR KSKA 240358Z AUTO 31009KT 10SM SCT075 BKN095 18/13 A2992 RMK AO2 RAB0319E0343 SLP125 P0000 T01780129

More Conditions Fewer Conditions

10-Day Weather Forecast

Almanac

Astronomy

Sep. 23, 2014 Rise Set
Actual Time 6:38 AM PDT 6:46 PM PDT
Civil Twilight 6:08 AM PDT 7:16 PM PDT
Nautical Twilight 5:32 AM PDT 7:52 PM PDT
Astronomical Twilight 4:54 AM PDT 8:29 PM PDT
Moon 6:06 AM PDT (9/23) 6:25 PM PDT (9/23)
Length of Visible Light 13h 08m
Length of Day
12h 07m
Tomorrow will be 3m 24s shorter.
Waning Crescent, 0% of the Moon is Illuminated
Sep 24
Waning Crescent
Sep 24
New
Oct 1
First Quarter
Oct 8
Full
Oct 15
Last Quarter

Today's Extremes

State Highs State Lows

Community

WunderPhotos

Upload Photos

1,755,882 photos uploaded!

WunderBlogs® & News

Nearby

Air Quality

  Air Quality AQ Index Pollutant
Yesterday Good
PM10
Yesterday Good
OZONE
Current Moderate
PM2.5
Tuesday Good
PM10
Tuesday Good
OZONE
Wednesday Good
PM10
Wednesday Good
OZONE

Snow Depth

Station Depth Elevation
Stevens Pass 0 in 4070 ft
Morse Lake 0 in 5400 ft
Mount Gardner 0 in 3000 ft
Wells Creek 0 in 4200 ft
Potato Hill 0 in 4500 ft

Earthquake Activity

City Distance Mag. Time & Date
No recent earthquake activity has been reported nearby.
Minimum magnitude displayed is 2.5.

Coastal Water Temperatures

Place Temperature
No Stations Reporting

Nearby Weather Stations